PRIVATE WETTERSTATION BILLIGHEIM-ALLFELD                       ZURCK
Wetterdaten: Mittwoch, 31.08.2016
Datum Zeit Temp. A. Temp. A. min Temp. A. max Feuchte A. Luftdruck Regen Wind Richtung Richtung Sonnenschein ET Solar Taupunkt Windchill Windben Empfang
31.08.2016 00:00 16,3 C 16,3 C 16,4 C 69 % 1021,1 hPa 0,0 l/m 0,0 km/h (0 Bft) N 0 0 min 0,025 mm 0 W/m 10,6 C 16,3 C 0,0 km/h (0 Bft) 100 %
31.08.2016 00:10 16,2 C 16,2 C 16,3 C 69 % 1021,1 hPa 0,0 l/m 0,0 km/h (0 Bft) N 0 0 min 0,000 mm 0 W/m 10,5 C 16,2 C 0,0 km/h (0 Bft) 100 %
31.08.2016 00:20 16,2 C 16,2 C 16,2 C 69 % 1021,0 hPa 0,0 l/m 0,0 km/h (0 Bft) N-NO 22 0 min 0,000 mm 0 W/m 10,5 C 16,2 C 4,8 km/h (1 Bft) 100 %
31.08.2016 00:30 16,2 C 16,2 C 16,2 C 69 % 1021,0 hPa 0,0 l/m 0,0 km/h (0 Bft) N-NW 337 0 min 0,000 mm 0 W/m 10,5 C 16,2 C 4,8 km/h (1 Bft) 100 %
31.08.2016 00:40 16,3 C 16,2 C 16,3 C 69 % 1021,1 hPa 0,0 l/m 0,0 km/h (0 Bft) N 360 0 min 0,000 mm 0 W/m 10,6 C 16,3 C 1,6 km/h (1 Bft) 100 %
31.08.2016 00:50 16,2 C 16,2 C 16,3 C 70 % 1021,0 hPa 0,0 l/m 0,0 km/h (0 Bft) N 0 0 min 0,000 mm 0 W/m 10,7 C 16,2 C 0,0 km/h (0 Bft) 100 %
31.08.2016 01:00 16,0 C 16,0 C 16,2 C 70 % 1021,0 hPa 0,0 l/m 0,0 km/h (0 Bft) N 0 0 min 0,025 mm 0 W/m 10,5 C 16,0 C 0,0 km/h (0 Bft) 100 %
31.08.2016 01:10 15,8 C 15,8 C 16,0 C 71 % 1020,9 hPa 0,0 l/m 0,0 km/h (0 Bft) N 360 0 min 0,000 mm 0 W/m 10,6 C 15,8 C 4,8 km/h (1 Bft) 100 %
31.08.2016 01:20 15,6 C 15,6 C 15,8 C 71 % 1020,8 hPa 0,0 l/m 1,6 km/h (1 Bft) N 360 0 min 0,000 mm 0 W/m 10,4 C 15,6 C 8,0 km/h (2 Bft) 100 %
31.08.2016 01:30 15,6 C 15,6 C 15,6 C 71 % 1020,6 hPa 0,0 l/m 1,6 km/h (1 Bft) N 360 0 min 0,000 mm 0 W/m 10,4 C 15,6 C 6,4 km/h (2 Bft) 100 %
31.08.2016 01:40 15,6 C 15,6 C 15,6 C 71 % 1020,6 hPa 0,0 l/m 0,0 km/h (0 Bft) N 360 0 min 0,000 mm 0 W/m 10,4 C 15,6 C 8,0 km/h (2 Bft) 100 %
31.08.2016 01:50 15,5 C 15,5 C 15,6 C 71 % 1020,5 hPa 0,0 l/m 0,0 km/h (0 Bft) N 0 0 min 0,000 mm 0 W/m 10,3 C 15,5 C 0,0 km/h (0 Bft) 100 %
31.08.2016 02:00 15,4 C 15,4 C 15,5 C 72 % 1020,4 hPa 0,0 l/m 0,0 km/h (0 Bft) O-NO 67 0 min 0,025 mm 0 W/m 10,4 C 15,4 C 1,6 km/h (1 Bft) 100 %
31.08.2016 02:10 15,2 C 15,2 C 15,4 C 73 % 1020,4 hPa 0,0 l/m 0,0 km/h (0 Bft) N 360 0 min 0,000 mm 0 W/m 10,4 C 15,2 C 4,8 km/h (1 Bft) 100 %
31.08.2016 02:20 15,1 C 15,1 C 15,1 C 73 % 1020,4 hPa 0,0 l/m 0,0 km/h (0 Bft) N 360 0 min 0,000 mm 0 W/m 10,3 C 15,1 C 1,6 km/h (1 Bft) 100 %
31.08.2016 02:30 14,9 C 14,9 C 15,1 C 74 % 1020,4 hPa 0,0 l/m 0,0 km/h (0 Bft) N 360 0 min 0,000 mm 0 W/m 10,3 C 14,9 C 1,6 km/h (1 Bft) 100 %
31.08.2016 02:40 14,7 C 14,7 C 14,9 C 74 % 1020,5 hPa 0,0 l/m 0,0 km/h (0 Bft) N 360 0 min 0,000 mm 0 W/m 10,1 C 14,7 C 3,2 km/h (1 Bft) 99 %
31.08.2016 02:50 14,6 C 14,6 C 14,7 C 74 % 1020,5 hPa 0,0 l/m 0,0 km/h (0 Bft) N 360 0 min 0,000 mm 0 W/m 10,0 C 14,6 C 3,2 km/h (1 Bft) 100 %
31.08.2016 03:00 14,3 C 14,3 C 14,6 C 75 % 1020,6 hPa 0,0 l/m 0,0 km/h (0 Bft) N 360 0 min 0,025 mm 0 W/m 9,9 C 14,3 C 1,6 km/h (1 Bft) 100 %
31.08.2016 03:10 14,1 C 14,1 C 14,3 C 76 % 1020,6 hPa 0,0 l/m 0,0 km/h (0 Bft) N 0 0 min 0,000 mm 0 W/m 9,9 C 14,1 C 0,0 km/h (0 Bft) 99 %
31.08.2016 03:20 13,9 C 13,9 C 14,1 C 76 % 1020,6 hPa 0,0 l/m 0,0 km/h (0 Bft) N 0 0 min 0,000 mm 0 W/m 9,7 C 13,9 C 0,0 km/h (0 Bft) 100 %
31.08.2016 03:30 13,8 C 13,8 C 13,9 C 76 % 1020,7 hPa 0,0 l/m 0,0 km/h (0 Bft) N 360 0 min 0,000 mm 0 W/m 9,6 C 13,8 C 3,2 km/h (1 Bft) 100 %
31.08.2016 03:40 13,7 C 13,7 C 13,8 C 77 % 1020,6 hPa 0,0 l/m 0,0 km/h (0 Bft) N 360 0 min 0,000 mm 0 W/m 9,7 C 13,7 C 1,6 km/h (1 Bft) 99 %
31.08.2016 03:50 13,5 C 13,5 C 13,7 C 77 % 1020,6 hPa 0,0 l/m 0,0 km/h (0 Bft) N 360 0 min 0,000 mm 0 W/m 9,5 C 13,5 C 3,2 km/h (1 Bft) 91 %
31.08.2016 04:00 13,3 C 13,3 C 13,5 C 77 % 1020,6 hPa 0,0 l/m 0,0 km/h (0 Bft) N 0 0 min 0,025 mm 0 W/m 9,4 C 13,3 C 0,0 km/h (0 Bft) 100 %
31.08.2016 04:10 13,2 C 13,2 C 13,3 C 77 % 1020,5 hPa 0,0 l/m 0,0 km/h (0 Bft) N 360 0 min 0,000 mm 0 W/m 9,3 C 13,2 C 4,8 km/h (1 Bft) 100 %
31.08.2016 04:20 13,1 C 13,1 C 13,2 C 78 % 1020,4 hPa 0,0 l/m 0,0 km/h (0 Bft) N 360 0 min 0,000 mm 0 W/m 9,4 C 13,1 C 1,6 km/h (1 Bft) 100 %
31.08.2016 04:30 12,9 C 12,9 C 13,1 C 79 % 1020,5 hPa 0,0 l/m 0,0 km/h (0 Bft) N 0 0 min 0,000 mm 0 W/m 9,3 C 12,9 C 0,0 km/h (0 Bft) 100 %
31.08.2016 04:40 12,7 C 12,7 C 12,9 C 79 % 1020,3 hPa 0,0 l/m 0,0 km/h (0 Bft) N 0 0 min 0,000 mm 0 W/m 9,2 C 12,7 C 0,0 km/h (0 Bft) 100 %
31.08.2016 04:50 12,6 C 12,6 C 12,7 C 80 % 1020,3 hPa 0,0 l/m 0,0 km/h (0 Bft) N 360 0 min 0,000 mm 0 W/m 9,2 C 12,6 C 3,2 km/h (1 Bft) 100 %
31.08.2016 05:00 12,5 C 12,5 C 12,6 C 80 % 1020,2 hPa 0,0 l/m 1,6 km/h (1 Bft) N 360 0 min 0,025 mm 0 W/m 9,1 C 12,5 C 4,8 km/h (1 Bft) 99 %
31.08.2016 05:10 12,4 C 12,4 C 12,5 C 81 % 1020,2 hPa 0,0 l/m 0,0 km/h (0 Bft) N 360 0 min 0,000 mm 0 W/m 9,2 C 12,4 C 4,8 km/h (1 Bft) 100 %
31.08.2016 05:20 12,3 C 12,3 C 12,4 C 81 % 1020,2 hPa 0,0 l/m 0,0 km/h (0 Bft) N 360 0 min 0,000 mm 0 W/m 9,1 C 12,3 C 3,2 km/h (1 Bft) 100 %
31.08.2016 05:30 12,3 C 12,3 C 12,3 C 81 % 1020,1 hPa 0,0 l/m 0,0 km/h (0 Bft) N 360 0 min 0,000 mm 0 W/m 9,1 C 12,3 C 1,6 km/h (1 Bft) 100 %
31.08.2016 05:40 12,2 C 12,2 C 12,3 C 81 % 1020,3 hPa 0,0 l/m 1,6 km/h (1 Bft) N 360 0 min 0,000 mm 0 W/m 9,0 C 12,2 C 4,8 km/h (1 Bft) 100 %
31.08.2016 05:50 12,2 C 12,2 C 12,3 C 82 % 1020,3 hPa 0,0 l/m 0,0 km/h (0 Bft) N 360 0 min 0,000 mm 0 W/m 9,2 C 12,2 C 3,2 km/h (1 Bft) 100 %
31.08.2016 06:00 12,1 C 12,1 C 12,2 C 81 % 1020,3 hPa 0,0 l/m 0,0 km/h (0 Bft) N 360 0 min 0,025 mm 0 W/m 8,9 C 12,1 C 3,2 km/h (1 Bft) 100 %
31.08.2016 06:10 12,1 C 12,1 C 12,1 C 81 % 1020,1 hPa 0,0 l/m 0,0 km/h (0 Bft) N 0 0 min 0,000 mm 0 W/m 8,9 C 12,1 C 0,0 km/h (0 Bft) 100 %
31.08.2016 06:20 12,1 C 12,1 C 12,1 C 81 % 1020,3 hPa 0,0 l/m 0,0 km/h (0 Bft) N 0 0 min 0,000 mm 0 W/m 8,9 C 12,1 C 0,0 km/h (0 Bft) 100 %
31.08.2016 06:30 11,9 C 11,9 C 12,1 C 82 % 1020,3 hPa 0,0 l/m 0,0 km/h (0 Bft) N 360 0 min 0,000 mm 0 W/m 8,9 C 11,9 C 1,6 km/h (1 Bft) 99 %
31.08.2016 06:40 11,9 C 11,9 C 11,9 C 82 % 1020,3 hPa 0,0 l/m 0,0 km/h (0 Bft) N 360 0 min 0,000 mm 0 W/m 8,9 C 11,9 C 3,2 km/h (1 Bft) 100 %
31.08.2016 06:50 11,9 C 11,9 C 11,9 C 82 % 1020,4 hPa 0,0 l/m 1,6 km/h (1 Bft) N 360 0 min 0,000 mm 7 W/m 8,9 C 11,9 C 4,8 km/h (1 Bft) 100 %
31.08.2016 07:00 11,9 C 11,8 C 11,9 C 82 % 1020,3 hPa 0,0 l/m 0,0 km/h (0 Bft) N 360 0 min 0,000 mm 11 W/m 8,9 C 11,9 C 3,2 km/h (1 Bft) 100 %
31.08.2016 07:10 11,9 C 11,8 C 11,9 C 83 % 1020,3 hPa 0,0 l/m 0,0 km/h (0 Bft) N 360 0 min 0,000 mm 14 W/m 9,1 C 11,9 C 4,8 km/h (1 Bft) 100 %
31.08.2016 07:20 11,9 C 11,9 C 11,9 C 83 % 1020,3 hPa 0,0 l/m 0,0 km/h (0 Bft) N 0 0 min 0,000 mm 18 W/m 9,1 C 11,9 C 0,0 km/h (0 Bft) 90 %
31.08.2016 07:30 12,1 C 11,9 C 12,1 C 83 % 1020,3 hPa 0,0 l/m 0,0 km/h (0 Bft) N 0 0 min 0,000 mm 21 W/m 9,3 C 12,1 C 0,0 km/h (0 Bft) 100 %
31.08.2016 07:40 12,1 C 12,1 C 12,1 C 83 % 1020,3 hPa 0,0 l/m 0,0 km/h (0 Bft) N 0 0 min 0,000 mm 25 W/m 9,3 C 12,1 C 0,0 km/h (0 Bft) 100 %
31.08.2016 07:50 12,1 C 12,1 C 12,1 C 84 % 1020,5 hPa 0,0 l/m 0,0 km/h (0 Bft) N 0 0 min 0,000 mm 28 W/m 9,5 C 12,1 C 0,0 km/h (0 Bft) 100 %
31.08.2016 08:00 12,1 C 12,1 C 12,2 C 84 % 1020,4 hPa 0,0 l/m 0,0 km/h (0 Bft) N 0 0 min 0,025 mm 32 W/m 9,5 C 12,1 C 0,0 km/h (0 Bft) 100 %
31.08.2016 08:10 12,3 C 12,1 C 12,3 C 84 % 1020,5 hPa 0,0 l/m 0,0 km/h (0 Bft) N 0 0 min 0,000 mm 37 W/m 9,7 C 12,3 C 0,0 km/h (0 Bft) 100 %
31.08.2016 08:20 12,5 C 12,3 C 12,5 C 84 % 1020,3 hPa 0,0 l/m 0,0 km/h (0 Bft) N 0 0 min 0,000 mm 42 W/m 9,9 C 12,5 C 0,0 km/h (0 Bft) 100 %
31.08.2016 08:30 12,9 C 12,5 C 12,9 C 83 % 1020,2 hPa 0,0 l/m 0,0 km/h (0 Bft) N 0 0 min 0,000 mm 107 W/m 10,1 C 12,9 C 0,0 km/h (0 Bft) 100 %
31.08.2016 08:40 13,7 C 12,9 C 13,7 C 83 % 1020,3 hPa 0,0 l/m 0,0 km/h (0 Bft) N-NW 337 10 min 0,000 mm 267 W/m 10,9 C 13,7 C 1,6 km/h (1 Bft) 100 %
31.08.2016 08:50 14,9 C 13,7 C 14,9 C 80 % 1020,4 hPa 0,0 l/m 0,0 km/h (0 Bft) N 0 10 min 0,000 mm 302 W/m 11,5 C 14,9 C 0,0 km/h (0 Bft) 100 %
31.08.2016 09:00 16,0 C 14,9 C 16,0 C 78 % 1020,5 hPa 0,0 l/m 0,0 km/h (0 Bft) N 0 10 min 0,076 mm 334 W/m 12,2 C 16,0 C 0,0 km/h (0 Bft) 100 %
31.08.2016 09:10 16,8 C 16,0 C 16,8 C 73 % 1020,3 hPa 0,0 l/m 0,0 km/h (0 Bft) NO 45 10 min 0,000 mm 336 W/m 11,9 C 16,8 C 1,6 km/h (1 Bft) 100 %
31.08.2016 09:20 17,4 C 16,8 C 17,4 C 73 % 1020,3 hPa 0,0 l/m 0,0 km/h (0 Bft) O 90 10 min 0,000 mm 392 W/m 12,5 C 17,4 C 1,6 km/h (1 Bft) 100 %
31.08.2016 09:30 18,1 C 17,4 C 18,1 C 70 % 1020,3 hPa 0,0 l/m 0,0 km/h (0 Bft) N 0 10 min 0,000 mm 396 W/m 12,5 C 18,1 C 0,0 km/h (0 Bft) 100 %
31.08.2016 09:40 18,8 C 18,1 C 18,8 C 67 % 1020,3 hPa 0,0 l/m 0,0 km/h (0 Bft) N-NW 337 10 min 0,000 mm 446 W/m 12,5 C 18,8 C 1,6 km/h (1 Bft) 100 %
31.08.2016 09:50 19,5 C 18,8 C 19,5 C 66 % 1020,3 hPa 0,0 l/m 0,0 km/h (0 Bft) O-SO 112 10 min 0,000 mm 473 W/m 13,0 C 19,5 C 9,7 km/h (2 Bft) 100 %
31.08.2016 10:00 19,9 C 19,5 C 19,9 C 65 % 1020,3 hPa 0,0 l/m 1,6 km/h (1 Bft) SO 135 10 min 0,229 mm 499 W/m 13,1 C 19,9 C 6,4 km/h (2 Bft) 100 %
31.08.2016 10:10 20,3 C 19,5 C 20,3 C 65 % 1020,3 hPa 0,0 l/m 0,0 km/h (0 Bft) O-NO 76 10 min 0,000 mm 522 W/m 13,5 C 20,3 C 0,0 km/h (0 Bft) 97 %
31.08.2016 10:20 20,9 C 20,3 C 20,9 C 64 % 1020,2 hPa 0,0 l/m 0,9 km/h (0 Bft) O-SO 109 10 min 0,000 mm 547 W/m 13,8 C 20,9 C 9,7 km/h (2 Bft) 100 %
31.08.2016 10:30 21,4 C 20,9 C 21,4 C 63 % 1020,1 hPa 0,0 l/m 0,2 km/h (0 Bft) SO 124 10 min 0,000 mm 570 W/m 14,1 C 21,4 C 3,2 km/h (1 Bft) 100 %
31.08.2016 10:40 21,8 C 21,4 C 21,8 C 61 % 1020,1 hPa 0,0 l/m 0,0 km/h (0 Bft) O 86 10 min 0,000 mm 594 W/m 13,9 C 21,8 C 1,6 km/h (1 Bft) 100 %
31.08.2016 10:50 22,0 C 21,8 C 22,0 C 60 % 1020,1 hPa 0,0 l/m 0,0 km/h (0 Bft) N 5 10 min 0,000 mm 612 W/m 13,9 C 22,0 C 1,6 km/h (1 Bft) 100 %
31.08.2016 11:00 22,4 C 22,0 C 22,4 C 60 % 1020,1 hPa 0,0 l/m 0,0 km/h (0 Bft) N 355 10 min 0,000 mm 635 W/m 14,2 C 22,4 C 1,6 km/h (1 Bft) 100 %
31.08.2016 11:10 22,9 C 22,4 C 22,9 C 57 % 1020,0 hPa 0,0 l/m 0,7 km/h (0 Bft) O-SO 123 10 min 0,308 mm 652 W/m 13,9 C 22,9 C 11,3 km/h (2 Bft) 100 %
31.08.2016 11:20 23,3 C 22,9 C 23,3 C 58 % 1020,0 hPa 0,0 l/m 0,7 km/h (0 Bft) NW 323 10 min 0,000 mm 673 W/m 14,6 C 23,3 C 9,7 km/h (2 Bft) 100 %
31.08.2016 11:30 23,8 C 23,3 C 23,8 C 57 % 1019,9 hPa 0,0 l/m 0,5 km/h (0 Bft) O-NO 75 10 min 0,000 mm 687 W/m 14,8 C 23,8 C 4,8 km/h (1 Bft) 100 %
31.08.2016 11:40 24,4 C 23,8 C 24,4 C 56 % 1019,7 hPa 0,0 l/m 0,8 km/h (0 Bft) NO 56 10 min 0,000 mm 701 W/m 15,0 C 24,4 C 8,0 km/h (2 Bft) 100 %
31.08.2016 11:50 24,5 C 24,4 C 24,5 C 55 % 1019,7 hPa 0,0 l/m 1,2 km/h (1 Bft) O-SO 118 10 min 0,000 mm 712 W/m 14,9 C 24,5 C 8,0 km/h (2 Bft) 100 %
31.08.2016 12:00 24,6 C 24,5 C 24,6 C 53 % 1019,6 hPa 0,0 l/m 2,7 km/h (1 Bft) N-NO 28 10 min 0,432 mm 724 W/m 14,4 C 24,6 C 11,3 km/h (2 Bft) 100 %
31.08.2016 12:10 24,8 C 24,6 C 24,8 C 53 % 1019,7 hPa 0,0 l/m 4,5 km/h (1 Bft) O 92 10 min 0,000 mm 735 W/m 14,6 C 24,8 C 16,1 km/h (3 Bft) 100 %
31.08.2016 12:20 25,2 C 24,7 C 25,2 C 53 % 1019,7 hPa 0,0 l/m 3,1 km/h (1 Bft) S 188 10 min 0,000 mm 744 W/m 14,9 C 25,2 C 12,9 km/h (3 Bft) 100 %
31.08.2016 12:30 25,5 C 25,2 C 25,5 C 53 % 1019,7 hPa 0,0 l/m 1,3 km/h (1 Bft) SO 131 10 min 0,000 mm 752 W/m 15,2 C 25,5 C 9,7 km/h (2 Bft) 100 %
31.08.2016 12:40 25,7 C 25,5 C 25,7 C 51 % 1019,6 hPa 0,0 l/m 3,1 km/h (1 Bft) O-SO 112 10 min 0,000 mm 758 W/m 14,8 C 25,7 C 11,3 km/h (2 Bft) 100 %
31.08.2016 12:50 25,7 C 25,7 C 25,7 C 52 % 1019,4 hPa 0,0 l/m 2,9 km/h (1 Bft) N 5 10 min 0,000 mm 758 W/m 15,1 C 25,7 C 14,5 km/h (3 Bft) 100 %
31.08.2016 13:00 26,0 C 25,7 C 26,0 C 50 % 1019,3 hPa 0,0 l/m 3,4 km/h (1 Bft) S-SO 155 10 min 0,482 mm 765 W/m 14,8 C 26,0 C 17,7 km/h (3 Bft) 100 %
31.08.2016 13:10 26,3 C 26,0 C 26,3 C 51 % 1019,2 hPa 0,0 l/m 1,1 km/h (1 Bft) SO 138 10 min 0,000 mm 773 W/m 15,3 C 26,3 C 9,7 km/h (2 Bft) 100 %
31.08.2016 13:20 26,7 C 26,3 C 26,7 C 49 % 1019,2 hPa 0,0 l/m 1,9 km/h (1 Bft) O-NO 64 10 min 0,000 mm 766 W/m 15,1 C 26,7 C 9,7 km/h (2 Bft) 100 %
31.08.2016 13:30 26,9 C 26,7 C 26,9 C 48 % 1019,3 hPa 0,0 l/m 2,4 km/h (1 Bft) O 90 10 min 0,000 mm 759 W/m 14,9 C 26,9 C 8,0 km/h (2 Bft) 100 %
31.08.2016 13:40 27,0 C 26,9 C 27,0 C 48 % 1019,1 hPa 0,0 l/m 0,4 km/h (0 Bft) O 94 10 min 0,000 mm 756 W/m 15,0 C 27,0 C 9,7 km/h (2 Bft) 100 %
31.08.2016 13:50 27,2 C 27,0 C 27,2 C 45 % 1019,0 hPa 0,0 l/m 1,8 km/h (1 Bft) NW 315 10 min 0,000 mm 761 W/m 14,2 C 27,2 C 8,0 km/h (2 Bft) 100 %
31.08.2016 14:00 27,4 C 27,2 C 27,4 C 46 % 1019,0 hPa 0,0 l/m 0,6 km/h (0 Bft) N 360 10 min 0,000 mm 754 W/m 14,7 C 27,4 C 8,0 km/h (2 Bft) 100 %
31.08.2016 14:10 27,7 C 27,4 C 27,7 C 44 % 1018,8 hPa 0,0 l/m 0,6 km/h (0 Bft) NW 321 10 min 0,508 mm 745 W/m 14,3 C 27,7 C 6,4 km/h (2 Bft) 100 %
31.08.2016 14:20 27,8 C 27,7 C 27,8 C 44 % 1018,7 hPa 0,0 l/m 1,7 km/h (1 Bft) N-NW 343 10 min 0,000 mm 735 W/m 14,4 C 27,8 C 9,7 km/h (2 Bft) 100 %
31.08.2016 14:30 27,8 C 27,7 C 27,9 C 44 % 1018,5 hPa 0,0 l/m 2,6 km/h (1 Bft) W-NW 284 10 min 0,000 mm 729 W/m 14,4 C 27,8 C 9,7 km/h (2 Bft) 100 %
31.08.2016 14:40 27,9 C 27,8 C 27,9 C 42 % 1018,6 hPa 0,0 l/m 0,3 km/h (0 Bft) W 277 10 min 0,000 mm 719 W/m 13,8 C 27,9 C 6,4 km/h (2 Bft) 100 %
31.08.2016 14:50 27,7 C 27,7 C 27,9 C 42 % 1018,4 hPa 0,0 l/m 4,4 km/h (1 Bft) W-NW 287 10 min 0,000 mm 710 W/m 13,6 C 27,7 C 16,1 km/h (3 Bft) 100 %
31.08.2016 15:00 27,6 C 27,6 C 27,8 C 44 % 1018,5 hPa 0,0 l/m 4,1 km/h (1 Bft) S-SO 152 10 min 0,508 mm 687 W/m 14,2 C 27,6 C 14,5 km/h (3 Bft) 100 %
31.08.2016 15:10 27,5 C 27,5 C 27,6 C 43 % 1018,3 hPa 0,0 l/m 1,7 km/h (1 Bft) O-SO 113 10 min 0,000 mm 520 W/m 13,8 C 27,5 C 8,0 km/h (2 Bft) 100 %
31.08.2016 15:20 27,7 C 27,5 C 27,7 C 44 % 1018,2 hPa 0,0 l/m 0,8 km/h (0 Bft) SW 234 0 min 0,000 mm 54 W/m 14,3 C 27,7 C 6,4 km/h (2 Bft) 100 %
31.08.2016 15:30 27,9 C 27,7 C 27,9 C 43 % 1018,1 hPa 0,0 l/m 2,5 km/h (1 Bft) S-SW 198 0 min 0,000 mm 0 W/m 14,1 C 27,9 C 11,3 km/h (2 Bft) 100 %
31.08.2016 15:40 27,7 C 27,7 C 27,9 C 44 % 1018,0 hPa 0,0 l/m 1,1 km/h (1 Bft) NW 314 0 min 0,000 mm 0 W/m 14,3 C 27,7 C 9,7 km/h (2 Bft) 100 %
31.08.2016 15:50 28,0 C 27,7 C 28,0 C 44 % 1018,0 hPa 0,0 l/m 1,3 km/h (1 Bft) W-SW 243 0 min 0,000 mm 0 W/m 14,6 C 28,0 C 6,4 km/h (2 Bft) 100 %
31.08.2016 16:00 27,8 C 27,8 C 28,0 C 45 % 1017,9 hPa 0,0 l/m 3,4 km/h (1 Bft) SO 130 0 min 0,102 mm 0 W/m 14,8 C 27,8 C 9,7 km/h (2 Bft) 100 %
31.08.2016 16:10 27,5 C 27,5 C 27,8 C 43 % 1017,9 hPa 0,0 l/m 5,4 km/h (1 Bft) SO 126 0 min 0,000 mm 0 W/m 13,8 C 27,5 C 14,5 km/h (3 Bft) 100 %
31.08.2016 16:20 27,4 C 27,4 C 27,5 C 43 % 1017,8 hPa 0,0 l/m 0,5 km/h (0 Bft) S 175 0 min 0,000 mm 0 W/m 13,7 C 27,4 C 8,0 km/h (2 Bft) 100 %
31.08.2016 16:30 27,3 C 27,3 C 27,5 C 43 % 1017,8 hPa 0,0 l/m 1,7 km/h (1 Bft) S 188 0 min 0,000 mm 0 W/m 13,6 C 27,3 C 9,7 km/h (2 Bft) 100 %
31.08.2016 16:40 27,3 C 27,2 C 27,3 C 45 % 1017,8 hPa 0,0 l/m 0,8 km/h (0 Bft) SW 219 0 min 0,000 mm 0 W/m 14,3 C 27,3 C 8,0 km/h (2 Bft) 100 %
31.08.2016 16:50 27,4 C 27,3 C 27,4 C 45 % 1017,8 hPa 0,0 l/m 1,1 km/h (1 Bft) W-NW 287 0 min 0,000 mm 0 W/m 14,4 C 27,4 C 8,0 km/h (2 Bft) 100 %
31.08.2016 17:00 27,5 C 27,4 C 27,5 C 45 % 1017,8 hPa 0,0 l/m 2,5 km/h (1 Bft) W 281 0 min 0,025 mm 0 W/m 14,5 C 27,5 C 9,7 km/h (2 Bft) 100 %
31.08.2016 17:10 27,6 C 27,5 C 27,6 C 43 % 1017,7 hPa 0,0 l/m 1,8 km/h (1 Bft) W-NW 292 0 min 0,000 mm 0 W/m 13,9 C 27,6 C 9,7 km/h (2 Bft) 100 %
31.08.2016 17:20 27,6 C 27,6 C 27,6 C 44 % 1017,7 hPa 0,0 l/m 2,5 km/h (1 Bft) W-NW 298 0 min 0,000 mm 0 W/m 14,2 C 27,6 C 8,0 km/h (2 Bft) 100 %
31.08.2016 17:30 27,6 C 27,6 C 27,6 C 45 % 1017,7 hPa 0,0 l/m 0,3 km/h (0 Bft) SW 229 0 min 0,000 mm 0 W/m 14,6 C 27,6 C 8,0 km/h (2 Bft) 99 %
31.08.2016 17:40 27,6 C 27,6 C 27,6 C 45 % 1017,6 hPa 0,0 l/m 1,5 km/h (1 Bft) SW 224 0 min 0,000 mm 0 W/m 14,6 C 27,6 C 8,0 km/h (2 Bft) 100 %
31.08.2016 17:50 27,2 C 27,2 C 27,6 C 45 % 1017,4 hPa 0,0 l/m 0,1 km/h (0 Bft) S-SW 202 0 min 0,000 mm 0 W/m 14,2 C 27,2 C 3,2 km/h (1 Bft) 100 %
31.08.2016 18:00 27,1 C 27,1 C 27,2 C 45 % 1017,4 hPa 0,0 l/m 0,8 km/h (0 Bft) W-NW 300 0 min 0,076 mm 0 W/m 14,1 C 27,1 C 8,0 km/h (2 Bft) 100 %
31.08.2016 18:10 27,1 C 27,1 C 27,1 C 45 % 1017,4 hPa 0,0 l/m 0,5 km/h (0 Bft) W-SW 249 0 min 0,000 mm 0 W/m 14,1 C 27,1 C 6,4 km/h (2 Bft) 99 %
31.08.2016 18:20 26,9 C 26,9 C 27,1 C 46 % 1017,4 hPa 0,0 l/m 0,3 km/h (0 Bft) W 272 0 min 0,000 mm 0 W/m 14,3 C 26,9 C 4,8 km/h (1 Bft) 100 %
31.08.2016 18:30 26,8 C 26,8 C 26,9 C 46 % 1017,4 hPa 0,0 l/m 0,7 km/h (0 Bft) W-NW 285 0 min 0,000 mm 0 W/m 14,2 C 26,8 C 6,4 km/h (2 Bft) 100 %
31.08.2016 18:40 26,7 C 26,7 C 26,8 C 47 % 1017,3 hPa 0,0 l/m 1,2 km/h (1 Bft) W 265 0 min 0,000 mm 0 W/m 14,4 C 26,7 C 8,0 km/h (2 Bft) 100 %
31.08.2016 18:50 26,5 C 26,5 C 26,7 C 47 % 1017,3 hPa 0,0 l/m 2,3 km/h (1 Bft) W-NW 298 0 min 0,000 mm 0 W/m 14,3 C 26,5 C 8,0 km/h (2 Bft) 100 %
31.08.2016 19:00 26,3 C 26,3 C 26,5 C 47 % 1017,3 hPa 0,0 l/m 0,3 km/h (0 Bft) W-NW 292 0 min 0,026 mm 0 W/m 14,1 C 26,3 C 6,4 km/h (2 Bft) 100 %
31.08.2016 19:10 26,1 C 26,1 C 26,3 C 48 % 1017,3 hPa 0,0 l/m 4,9 km/h (1 Bft) W-NW 288 0 min 0,000 mm 0 W/m 14,2 C 26,1 C 11,3 km/h (2 Bft) 99 %
31.08.2016 19:20 25,9 C 25,9 C 26,1 C 49 % 1017,3 hPa 0,0 l/m 5,7 km/h (1 Bft) W-NW 294 0 min 0,000 mm 0 W/m 14,4 C 25,9 C 9,7 km/h (2 Bft) 100 %
31.08.2016 19:30 25,6 C 25,6 C 25,9 C 50 % 1017,4 hPa 0,0 l/m 5,1 km/h (1 Bft) W-NW 296 0 min 0,000 mm 0 W/m 14,4 C 25,6 C 9,7 km/h (2 Bft) 100 %
31.08.2016 19:40 25,2 C 25,2 C 25,6 C 50 % 1017,5 hPa 0,0 l/m 5,1 km/h (1 Bft) W-NW 300 0 min 0,000 mm 0 W/m 14,0 C 25,2 C 11,3 km/h (2 Bft) 100 %
31.08.2016 19:50 24,9 C 24,9 C 25,2 C 53 % 1017,5 hPa 0,0 l/m 0,0 km/h (0 Bft) W-NW 300 0 min 0,000 mm 0 W/m 14,6 C 24,9 C 1,6 km/h (1 Bft) 100 %
31.08.2016 20:00 24,3 C 24,3 C 24,9 C 55 % 1017,5 hPa 0,0 l/m 0,0 km/h (0 Bft) W-NW 300 0 min 0,076 mm 0 W/m 14,7 C 24,3 C 1,6 km/h (1 Bft) 100 %
31.08.2016 20:10 23,7 C 23,7 C 24,3 C 57 % 1017,6 hPa 0,0 l/m 0,0 km/h (0 Bft) W-NW 300 0 min 0,000 mm 0 W/m 14,7 C 23,7 C 1,6 km/h (1 Bft) 100 %
31.08.2016 20:20 23,0 C 23,0 C 23,7 C 59 % 1017,8 hPa 0,0 l/m 0,2 km/h (0 Bft) W-NW 300 0 min 0,000 mm 0 W/m 14,5 C 23,0 C 4,8 km/h (1 Bft) 100 %
31.08.2016 20:30 22,3 C 22,3 C 23,0 C 60 % 1017,9 hPa 0,0 l/m 0,3 km/h (0 Bft) W-NW 302 0 min 0,000 mm 0 W/m 14,2 C 22,3 C 4,8 km/h (1 Bft) 100 %
31.08.2016 20:40 21,9 C 21,9 C 22,3 C 62 % 1018,0 hPa 0,0 l/m 0,0 km/h (0 Bft) W-NW 303 0 min 0,000 mm 0 W/m 14,3 C 21,9 C 1,6 km/h (1 Bft) 100 %
31.08.2016 20:50 21,5 C 21,5 C 21,9 C 63 % 1018,2 hPa 0,0 l/m 0,1 km/h (0 Bft) NW 306 0 min 0,000 mm 0 W/m 14,2 C 21,5 C 3,2 km/h (1 Bft) 100 %
31.08.2016 21:00 21,1 C 21,1 C 21,5 C 65 % 1018,3 hPa 0,0 l/m 0,0 km/h (0 Bft) NW 306 0 min 0,051 mm 0 W/m 14,3 C 21,1 C 0,0 km/h (0 Bft) 100 %
31.08.2016 21:10 20,8 C 20,8 C 21,1 C 66 % 1018,4 hPa 0,0 l/m 0,0 km/h (0 Bft) NW 315 0 min 0,000 mm 0 W/m 14,2 C 20,8 C 1,6 km/h (1 Bft) 100 %
31.08.2016 21:20 20,4 C 20,4 C 20,7 C 68 % 1018,5 hPa 0,0 l/m 0,0 km/h (0 Bft) N 0 0 min 0,000 mm 0 W/m 14,3 C 20,4 C 0,0 km/h (0 Bft) 100 %
31.08.2016 21:30 20,1 C 20,1 C 20,4 C 70 % 1018,7 hPa 0,0 l/m 0,0 km/h (0 Bft) N 0 0 min 0,000 mm 0 W/m 14,5 C 20,1 C 0,0 km/h (0 Bft) 100 %
31.08.2016 21:40 19,7 C 19,7 C 20,1 C 71 % 1018,7 hPa 0,0 l/m 0,0 km/h (0 Bft) N 0 0 min 0,000 mm 0 W/m 14,3 C 19,7 C 0,0 km/h (0 Bft) 100 %
31.08.2016 21:50 19,4 C 19,4 C 19,7 C 72 % 1018,8 hPa 0,0 l/m 0,0 km/h (0 Bft) N 0 0 min 0,000 mm 0 W/m 14,2 C 19,4 C 0,0 km/h (0 Bft) 100 %
31.08.2016 22:00 19,2 C 19,2 C 19,4 C 73 % 1018,7 hPa 0,0 l/m 0,0 km/h (0 Bft) NW 315 0 min 0,025 mm 0 W/m 14,2 C 19,2 C 3,2 km/h (1 Bft) 100 %
31.08.2016 22:10 19,2 C 19,2 C 19,3 C 73 % 1018,7 hPa 0,0 l/m 0,0 km/h (0 Bft) NW 315 0 min 0,000 mm 0 W/m 14,2 C 19,2 C 3,2 km/h (1 Bft) 100 %
31.08.2016 22:20 19,1 C 19,1 C 19,2 C 74 % 1018,6 hPa 0,0 l/m 0,0 km/h (0 Bft) N 0 0 min 0,000 mm 0 W/m 14,4 C 19,1 C 0,0 km/h (0 Bft) 100 %
31.08.2016 22:30 18,9 C 18,9 C 19,1 C 74 % 1018,7 hPa 0,0 l/m 0,0 km/h (0 Bft) N 0 0 min 0,000 mm 0 W/m 14,2 C 18,9 C 0,0 km/h (0 Bft) 100 %
31.08.2016 22:40 18,8 C 18,8 C 18,9 C 74 % 1018,7 hPa 0,0 l/m 0,0 km/h (0 Bft) N 0 0 min 0,000 mm 0 W/m 14,1 C 18,8 C 0,0 km/h (0 Bft) 100 %
31.08.2016 22:50 18,7 C 18,7 C 18,8 C 74 % 1018,8 hPa 0,0 l/m 0,0 km/h (0 Bft) N 0 0 min 0,000 mm 0 W/m 14,0 C 18,7 C 0,0 km/h (0 Bft) 100 %
31.08.2016 23:00 18,6 C 18,6 C 18,7 C 75 % 1018,9 hPa 0,0 l/m 0,0 km/h (0 Bft) N 0 0 min 0,025 mm 0 W/m 14,1 C 18,6 C 0,0 km/h (0 Bft) 100 %
31.08.2016 23:10 18,4 C 18,4 C 18,6 C 76 % 1018,9 hPa 0,0 l/m 0,0 km/h (0 Bft) NW 315 0 min 0,000 mm 0 W/m 14,1 C 18,4 C 1,6 km/h (1 Bft) 100 %
31.08.2016 23:20 18,1 C 18,1 C 18,4 C 75 % 1018,9 hPa 0,0 l/m 0,0 km/h (0 Bft) N 0 0 min 0,000 mm 0 W/m 13,6 C 18,1 C 0,0 km/h (0 Bft) 100 %
31.08.2016 23:30 18,0 C 18,0 C 18,1 C 77 % 1018,9 hPa 0,0 l/m 1,6 km/h (1 Bft) NW 315 0 min 0,000 mm 0 W/m 13,9 C 18,0 C 4,8 km/h (1 Bft) 100 %
31.08.2016 23:40 17,8 C 17,8 C 18,0 C 78 % 1019,0 hPa 0,0 l/m 0,0 km/h (0 Bft) NW 315 0 min 0,000 mm 0 W/m 13,9 C 17,8 C 1,6 km/h (1 Bft) 100 %
31.08.2016 23:50 17,6 C 17,6 C 17,8 C 78 % 1018,9 hPa 0,0 l/m 0,0 km/h (0 Bft) NW 315 0 min 0,000 mm 0 W/m 13,7 C 17,6 C 1,6 km/h (1 Bft) 100 %
_ Min-Zeit 07:00 07:00 06:40 14:40 18:40 - 00:00 - - - - - 06:30 06:30 00:00 07:20
Minimum _ 11,8 C 11,8 C 11,9 C 42 % 1017,3 hPa - 0,0 km/h (0 Bft) - - - - - 8,9 C 11,9 C 0,0 km/h (0 Bft) 90 %
_ Max-Zeit 15:50 14:40 15:50 07:50 00:00 00:00 19:20 - - 08:40 14:10 13:10 13:10 15:50 13:00 00:30
Maximum _ 28,0 C 27,8 C 28,0 C 84 % 1021,1 hPa 0,0 l/m 5,7 km/h
W-NW (1 Bft)
- - 10 min 0,508 mm 773 W/m 15,3 C 28,0 C 17,7 km/h
S-SO (3 Bft)
100 %
Durchschnitt _ 20,0 C 19,9 C 20,1 C 64 % 1019,4 hPa #0,0 l/m 0,8 km/h (0 Bft) W-NW - #6:40 h #3,149 mm 488 W/m 12,5 C 20,0 C 4,7 km/h (1 Bft) 100 %
PRIVATE WETTERSTATION BILLIGHEIM-ALLFELD - www.neckar-odenwald-wetter.de - Holger Sonntag